Time;durP1;ratioP1;P1;durP2;ratioP2;P2;SDS_P1;SDS_P2;PMS_P1;PMS_P2;Temp;Humidity;BMP_temperature;BMP_pressure;BME280_temperature;BME280_humidity;BME280_pressure;Samples;Min_cycle;Max_cycle;Signal;HPM_P1;HPM_P2
2022/03/12 00:00:29;;;;;;;3.55;2.60;;;18.10;25.80;20.50;93890.00;;;;10271545;28;46145;-60
2022/03/12 00:05:33;;;;;;;;;;;18.00;25.80;20.50;93887.00;;;;10273686;28;45172;-60
2022/03/12 00:10:34;;;;;;;3.95;2.53;;;18.00;25.70;20.50;93902.00;;;;10272701;28;45232;-60
2022/03/12 00:15:37;;;;;;;3.42;2.30;;;18.00;25.80;20.50;93894.00;;;;10270710;28;46442;-61
2022/03/12 00:20:38;;;;;;;4.57;2.40;;;18.00;25.80;20.50;93916.00;;;;10270260;28;45157;-60
2022/03/12 00:25:41;;;;;;;4.50;2.45;;;18.00;25.80;20.50;93911.00;;;;10271317;28;47042;-61
2022/03/12 00:30:45;;;;;;;3.42;2.42;;;18.00;25.80;20.50;93916.00;;;;10270940;28;47150;-60
2022/03/12 00:35:48;;;;;;;3.60;2.30;;;18.00;25.90;20.50;93903.00;;;;10271075;28;46743;-61
2022/03/12 00:40:50;;;;;;;3.35;2.40;;;18.00;25.80;20.50;93898.00;;;;10271686;28;45133;-60
2022/03/12 00:45:50;;;;;;;4.68;2.70;;;18.00;25.90;20.50;93912.00;;;;10270159;28;45437;-59
2022/03/12 00:50:51;;;;;;;3.47;2.65;;;18.00;25.80;20.50;93898.00;;;;10270889;28;45560;-60
2022/03/12 00:55:52;;;;;;;3.42;2.30;;;17.90;25.70;20.50;93902.00;;;;10269596;28;45222;-61
2022/03/12 01:00:52;;;;;;;3.47;2.42;;;17.90;25.70;20.40;93915.00;;;;10269685;28;45295;-60
2022/03/12 01:06:02;;;;;;;3.80;2.65;;;17.90;25.80;20.40;93914.00;;;;10269152;28;46597;-60
2022/03/12 01:11:07;;;;;;;4.03;2.38;;;17.90;25.70;20.40;93908.00;;;;10270025;28;46544;-60
2022/03/12 01:16:08;;;;;;;3.95;2.60;;;17.90;25.80;20.40;93913.00;;;;10269544;28;45186;-60
2022/03/12 01:21:17;;;;;;;5.57;2.47;;;17.90;25.80;20.40;93920.00;;;;10268971;28;45507;-59
2022/03/12 01:26:21;;;;;;;4.57;2.50;;;17.90;25.80;20.40;93939.00;;;;10269935;28;46195;-59
2022/03/12 01:31:22;;;;;;;4.05;2.40;;;17.90;25.80;20.40;93911.00;;;;10274356;28;46758;-60
2022/03/12 01:36:23;;;;;;;3.65;2.70;;;17.90;25.70;20.40;93904.00;;;;10276056;28;46311;-61
2022/03/12 01:41:32;;;;;;;4.72;2.67;;;17.90;25.70;20.40;93913.00;;;;10275897;28;47226;-60
2022/03/12 01:46:46;;;;;;;3.92;2.47;;;17.90;25.70;20.40;93925.00;;;;10277102;28;45235;-60
2022/03/12 01:51:51;;;;;;;4.45;2.80;;;17.90;25.70;20.30;93919.00;;;;10276111;28;45365;-59
2022/03/12 01:56:54;;;;;;;3.95;2.75;;;17.90;25.70;20.30;93915.00;;;;10277096;28;45327;-60
2022/03/12 02:01:55;;;;;;;4.63;2.75;;;17.80;25.80;20.30;93911.00;;;;10270447;28;46442;-60
2022/03/12 02:06:59;;;;;;;4.60;2.70;;;17.80;25.70;20.30;93896.00;;;;10275098;28;45517;-59
2022/03/12 02:12:00;;;;;;;3.58;2.55;;;17.80;25.70;20.30;93886.00;;;;10275555;28;47642;-60
2022/03/12 02:17:08;;;;;;;4.30;2.75;;;17.80;25.70;20.30;93868.00;;;;10274813;28;46406;-60
2022/03/12 02:22:14;;;;;;;4.97;2.90;;;17.80;25.80;20.30;93889.00;;;;10362966;23;46452;-61
2022/03/12 02:27:15;;;;;;;;;;;17.80;25.70;20.30;93889.00;;;;10315545;28;46109;-61
2022/03/12 02:32:16;;;;;;;4.50;2.42;;;17.80;25.70;20.30;93885.00;;;;10316368;28;45264;-62
2022/03/12 02:42:54;;;;;;;5.00;2.67;;;17.80;25.80;20.30;93905.00;;;;10312767;28;46145;-61
2022/03/12 02:47:56;;;;;;;4.32;2.65;;;17.80;25.70;20.30;93901.00;;;;10330037;28;47109;-62
2022/03/12 02:52:57;;;;;;;4.03;2.67;;;17.80;25.80;20.30;93911.00;;;;10314584;28;45270;-60
2022/03/12 02:57:57;;;;;;;4.00;2.70;;;17.80;25.70;20.30;93902.00;;;;10315386;28;46106;-62
2022/03/12 03:02:58;;;;;;;4.40;2.95;;;17.80;25.80;20.30;93901.00;;;;10314448;28;45189;-61
2022/03/12 03:08:02;;;;;;;4.70;3.10;;;17.80;25.80;20.20;93922.00;;;;10313904;28;45417;-61
2022/03/12 03:13:17;;;;;;;5.07;2.90;;;17.80;25.70;20.20;93926.00;;;;10313821;28;45961;-61
2022/03/12 03:18:21;;;;;;;5.28;2.88;;;17.80;25.70;20.20;93925.00;;;;10314029;28;45207;-62
2022/03/12 03:23:26;;;;;;;4.70;3.00;;;17.80;25.70;20.20;93927.00;;;;10313742;28;46270;-60
2022/03/12 03:28:27;;;;;;;4.70;2.83;;;17.70;25.80;20.20;93921.00;;;;10312618;28;46423;-61
2022/03/12 03:33:28;;;;;;;4.43;2.67;;;17.70;25.70;20.20;93927.00;;;;10313582;28;45859;-62
2022/03/12 03:38:29;;;;;;;4.55;3.00;;;17.70;25.80;20.20;93920.00;;;;10312460;28;47813;-61
2022/03/12 03:43:29;;;;;;;5.40;3.45;;;17.70;25.80;20.20;93900.00;;;;10313055;28;45226;-62
2022/03/12 03:48:38;;;;;;;4.93;2.63;;;17.70;25.80;20.20;93928.00;;;;10312698;28;46390;-60
2022/03/12 03:53:38;;;;;;;4.45;2.78;;;17.70;25.70;20.20;93926.00;;;;10311836;28;46351;-63
2022/03/12 03:58:39;;;;;;;4.60;2.78;;;17.70;25.80;20.20;93923.00;;;;10311478;28;45878;-62
2022/03/12 04:03:44;;;;;;;4.68;2.83;;;17.70;25.80;20.20;93934.00;;;;10313619;28;46351;-61
2022/03/12 04:08:45;;;;;;;5.55;2.90;;;17.70;25.80;20.20;93920.00;;;;10311847;28;45447;-62
2022/03/12 04:13:49;;;;;;;4.55;2.70;;;17.70;25.80;20.20;93941.00;;;;10313842;28;45435;-62
2022/03/12 04:18:50;;;;;;;4.75;3.00;;;17.70;25.90;20.20;93939.00;;;;10311105;28;45327;-62
2022/03/12 04:23:51;;;;;;;4.35;2.75;;;17.70;25.80;20.20;93942.00;;;;10311944;28;45249;-61
2022/03/12 04:28:52;;;;;;;3.65;2.45;;;17.70;25.90;20.20;93940.00;;;;10311085;28;47233;-61
2022/03/12 04:33:52;;;;;;;4.00;2.78;;;17.70;25.90;20.20;93938.00;;;;10311242;28;48480;-61
2022/03/12 04:38:53;;;;;;;3.60;2.53;;;17.70;25.90;20.20;93942.00;;;;10312203;28;45965;-61
2022/03/12 04:43:54;;;;;;;3.28;2.42;;;17.70;25.90;20.20;93931.00;;;;10312557;28;45527;-62
2022/03/12 04:48:55;;;;;;;4.43;2.60;;;17.70;25.90;20.20;93946.00;;;;10310380;28;47947;-60
2022/03/12 04:54:00;;;;;;;3.58;2.33;;;17.70;26.00;20.20;93944.00;;;;10312595;28;45241;-61
2022/03/12 04:59:02;;;;;;;3.50;2.30;;;17.70;26.00;20.20;93953.00;;;;10310401;28;45363;-62
2022/03/12 05:04:03;;;;;;;3.95;2.53;;;17.70;26.00;20.20;93937.00;;;;10313035;28;45285;-62
2022/03/12 05:09:05;;;;;;;3.10;2.10;;;17.70;26.10;20.20;93953.00;;;;10316793;28;48023;-60
2022/03/12 05:14:10;;;;;;;3.47;2.25;;;17.70;26.10;20.20;93949.00;;;;10318136;28;47038;-61
2022/03/12 05:19:13;;;;;;;3.58;2.45;;;17.70;26.10;20.30;93946.00;;;;10317210;28;45296;-62
2022/03/12 05:24:15;;;;;;;4.10;2.35;;;17.80;26.10;20.30;93953.00;;;;10318235;28;46425;-62
2022/03/12 05:29:15;;;;;;;3.42;2.30;;;17.80;26.10;20.30;93944.00;;;;10315913;28;45480;-60
2022/03/12 05:34:16;;;;;;;3.40;2.30;;;17.90;26.10;20.40;93938.00;;;;10316255;28;47567;-61
2022/03/12 05:39:18;;;;;;;3.58;2.08;;;17.90;26.10;20.40;93954.00;;;;10317034;28;45457;-62
2022/03/12 05:44:18;;;;;;;3.60;2.17;;;17.90;26.10;20.40;93955.00;;;;10315923;28;46511;-62
2022/03/12 05:49:20;;;;;;;3.25;2.38;;;17.90;26.30;20.40;93956.00;;;;10316980;28;45473;-62
2022/03/12 05:54:21;;;;;;;3.50;2.38;;;17.90;26.10;20.40;93952.00;;;;10316539;28;45219;-62
2022/03/12 05:59:21;;;;;;;4.30;2.33;;;17.90;26.70;20.40;93961.00;;;;10315499;28;46129;-61
2022/03/12 06:04:29;;;;;;;3.03;2.33;;;18.00;26.20;20.50;93970.00;;;;10317255;28;46236;-61
2022/03/12 06:09:29;;;;;;;3.10;2.30;;;18.00;26.20;20.50;93975.00;;;;10316446;28;47342;-61
2022/03/12 06:14:31;;;;;;;3.47;2.22;;;18.00;26.20;20.50;93976.00;;;;10317217;28;46595;-61
2022/03/12 06:19:32;;;;;;;3.45;2.45;;;18.00;26.20;20.50;93976.00;;;;10315573;28;47407;-61
2022/03/12 06:24:32;;;;;;;3.10;2.28;;;18.00;26.20;20.50;93993.00;;;;10315751;28;45440;-60
2022/03/12 06:29:35;;;;;;;3.35;2.47;;;18.00;26.20;20.50;93993.00;;;;10314997;28;46546;-60
2022/03/12 06:34:35;;;;;;;3.67;2.25;;;18.00;26.20;20.50;93996.00;;;;10316902;28;46061;-62
2022/03/12 06:39:36;;;;;;;3.55;2.40;;;18.00;26.20;20.50;93995.00;;;;10312736;28;45620;-61
2022/03/12 06:44:37;;;;;;;3.95;2.60;;;18.00;26.20;20.50;93993.00;;;;10315334;28;45390;-61
2022/03/12 06:49:38;;;;;;;4.20;2.50;;;18.00;26.30;20.50;94000.00;;;;10314362;28;45570;-60
2022/03/12 06:54:39;;;;;;;5.85;2.22;;;18.00;26.30;20.50;94001.00;;;;10322440;28;45147;-63
2022/03/12 06:59:40;;;;;;;4.18;2.63;;;18.00;26.30;20.50;94013.00;;;;10324534;28;47051;-62
2022/03/12 07:04:40;;;;;;;5.90;2.35;;;18.00;26.30;20.60;94011.00;;;;10348405;28;46497;-62
2022/03/12 07:09:41;;;;;;;3.90;2.30;;;18.10;26.40;20.60;94014.00;;;;10333746;28;46755;-62
2022/03/12 07:14:42;;;;;;;3.90;2.33;;;18.10;26.40;20.60;94018.00;;;;10350709;28;47825;-63
2022/03/12 07:19:42;;;;;;;3.50;2.25;;;18.10;26.40;20.60;94015.00;;;;10369461;28;45526;-62
2022/03/12 07:24:43;;;;;;;3.03;1.85;;;18.10;26.40;20.60;94017.00;;;;10353262;28;47000;-61
2022/03/12 07:29:44;;;;;;;3.03;2.22;;;18.10;26.40;20.60;94005.00;;;;10352179;28;47062;-61
2022/03/12 07:34:45;;;;;;;3.03;2.03;;;18.10;26.40;20.60;94025.00;;;;10355089;28;45170;-62
2022/03/12 07:39:47;;;;;;;3.45;2.03;;;18.10;26.40;20.60;94022.00;;;;10369479;28;46041;-61
2022/03/12 07:44:47;;;;;;;3.70;2.30;;;18.10;26.50;20.60;94026.00;;;;10369659;28;45380;-61
2022/03/12 07:49:48;;;;;;;3.67;2.35;;;18.10;26.40;20.60;94022.00;;;;10369244;28;45235;-61
2022/03/12 07:54:49;;;;;;;2.85;2.22;;;18.10;26.50;20.60;94034.00;;;;10354544;28;45271;-61
2022/03/12 07:59:49;;;;;;;3.53;2.30;;;18.10;26.50;20.60;94018.00;;;;10369007;28;45617;-61
2022/03/12 08:04:50;;;;;;;5.25;2.38;;;18.10;26.50;20.60;94029.00;;;;10353554;28;45262;-61
2022/03/12 08:09:56;;;;;;;4.05;2.47;;;18.10;26.50;20.60;94041.00;;;;10353499;28;45189;-61
2022/03/12 08:14:58;;;;;;;3.45;2.50;;;18.10;26.50;20.60;94022.00;;;;10367979;28;45270;-60
2022/03/12 08:19:58;;;;;;;4.57;2.50;;;18.10;26.40;20.60;94033.00;;;;10368117;28;45318;-61
2022/03/12 08:24:59;;;;;;;3.22;2.17;;;18.10;26.40;20.60;94022.00;;;;10368618;28;45344;-61
2022/03/12 08:30:00;;;;;;;3.70;2.60;;;18.10;26.40;20.60;94039.00;;;;10367974;28;46723;-62
2022/03/12 08:35:05;;;;;;;3.38;2.13;;;18.10;26.50;20.70;94033.00;;;;10351555;28;46967;-60
2022/03/12 08:40:06;;;;;;;4.07;2.38;;;18.10;26.50;20.70;94025.00;;;;10367190;28;45202;-62
2022/03/12 08:45:10;;;;;;;3.47;2.33;;;18.10;26.40;20.70;94046.00;;;;10333186;28;45030;-61
2022/03/12 08:50:11;;;;;;;4.57;2.47;;;18.20;26.50;20.70;94035.00;;;;10326225;28;46172;-61
2022/03/12 08:55:12;;;;;;;4.82;2.90;;;18.10;26.40;20.70;94044.00;;;;10344985;28;45466;-62
2022/03/12 09:00:15;;;;;;;5.22;3.63;;;18.20;26.30;20.60;94037.00;;;;10350070;28;46994;-62
2022/03/12 09:05:16;;;;;;;6.00;3.63;;;18.10;26.20;20.60;94045.00;;;;10366448;28;45689;-61
2022/03/12 09:10:19;;;;;;;5.70;3.25;;;18.10;26.30;20.60;94034.00;;;;10349468;28;45324;-62
2022/03/12 09:15:24;;;;;;;6.60;3.65;;;18.10;26.30;20.60;94037.00;;;;10349277;28;48056;-62
2022/03/12 09:20:25;;;;;;;5.70;3.15;;;18.10;26.20;20.70;94032.00;;;;10349123;28;47412;-60
2022/03/12 09:25:25;;;;;;;6.53;3.95;;;18.10;26.20;20.60;94042.00;;;;10351196;28;45581;-59
2022/03/12 09:30:26;;;;;;;6.07;3.58;;;18.10;26.00;20.60;94042.00;;;;10350492;28;46401;-62
2022/03/12 09:35:28;;;;;;;6.75;3.50;;;18.10;26.00;20.60;94043.00;;;;10350841;28;45248;-60
2022/03/12 09:40:30;;;;;;;5.82;3.30;;;18.10;26.00;20.60;94029.00;;;;10365942;28;45225;-60
2022/03/12 09:45:31;;;;;;;5.18;3.70;;;18.10;25.90;20.70;94028.00;;;;10348487;28;45172;-60
2022/03/12 09:50:32;;;;;;;6.13;3.28;;;18.10;26.00;20.70;94040.00;;;;10322754;28;45237;-62
2022/03/12 09:55:34;;;;;;;4.28;3.00;;;18.20;26.00;20.70;94023.00;;;;10332475;28;45401;-63
2022/03/12 10:00:35;;;;;;;6.53;3.67;;;18.20;26.00;20.70;94041.00;;;;10314757;28;45258;-62
2022/03/12 10:05:35;;;;;;;7.07;4.13;;;18.20;25.60;20.60;94021.00;;;;10331295;28;45243;-60
2022/03/12 10:10:37;;;;;;;6.63;3.60;;;18.10;25.60;20.60;94033.00;;;;10336956;28;45420;-61
2022/03/12 10:15:38;;;;;;;4.93;3.33;;;18.10;25.80;20.70;94025.00;;;;10334314;28;46063;-61
2022/03/12 10:20:39;;;;;;;6.75;3.75;;;18.20;25.80;20.70;94006.00;;;;10311296;28;46314;-60
2022/03/12 10:25:40;;;;;;;5.47;3.60;;;18.20;25.90;20.70;94014.00;;;;10310231;28;46033;-63
2022/03/12 10:30:40;;;;;;;5.47;3.47;;;18.20;25.90;20.70;94006.00;;;;10311707;28;46662;-60
2022/03/12 10:35:41;;;;;;;5.40;3.28;;;18.20;25.90;20.70;94012.00;;;;10314201;28;45271;-62
2022/03/12 10:40:42;;;;;;;4.65;3.03;;;18.20;25.90;20.70;93994.00;;;;10323776;28;45673;-61
2022/03/12 10:45:48;;;;;;;5.07;3.40;;;18.20;26.00;20.80;94004.00;;;;10311509;28;46031;-62
2022/03/12 10:50:51;;;;;;;6.35;3.35;;;18.20;26.00;20.80;93986.00;;;;10316561;28;47080;-60
2022/03/12 10:55:52;;;;;;;5.30;3.28;;;18.30;26.10;20.80;93988.00;;;;10273599;28;47329;-61
2022/03/12 11:00:56;;;;;;;5.28;3.10;;;18.20;26.10;20.80;94004.00;;;;10308601;28;47331;-62
2022/03/12 11:05:58;;;;;;;7.55;3.10;;;18.20;26.10;20.80;93980.00;;;;10310646;28;46262;-62
2022/03/12 11:11:12;;;;;;;5.18;2.92;;;18.30;26.10;20.80;93983.00;;;;10311853;28;45157;-62
2022/03/12 11:16:20;;;;;;;5.18;2.80;;;18.30;26.10;20.80;93988.00;;;;10309400;28;45328;-61
2022/03/12 11:21:51;;;;;;;4.53;2.78;;;18.30;26.20;20.80;93987.00;;;;10269403;28;1071129;-61
2022/03/12 11:26:58;;;;;;;5.45;2.90;;;18.30;26.20;20.80;93977.00;;;;10284339;28;46620;-61
2022/03/12 11:32:05;;;;;;;5.30;2.78;;;18.30;26.20;20.80;93960.00;;;;10296459;28;48070;-61
2022/03/12 11:37:18;;;;;;;3.83;2.70;;;18.30;26.20;20.80;93967.00;;;;10309776;28;45343;-61
2022/03/12 11:42:30;;;;;;;4.88;3.05;;;18.30;26.20;20.80;93962.00;;;;10295993;28;47200;-61
2022/03/12 11:47:37;;;;;;;5.40;3.05;;;18.30;26.20;20.80;93968.00;;;;10295576;28;46991;-61
2022/03/12 11:52:38;;;;;;;7.50;3.03;;;18.30;26.20;20.90;93975.00;;;;10312479;28;45265;-61
2022/03/12 11:57:39;;;;;;;4.40;2.67;;;18.30;26.20;20.90;93965.00;;;;10312758;28;45106;-62
2022/03/12 12:02:39;;;;;;;4.35;2.58;;;18.40;26.20;20.90;93948.00;;;;10305655;28;45515;-61
2022/03/12 12:07:45;;;;;;;3.97;2.40;;;18.40;26.20;20.90;93935.00;;;;10309745;28;45991;-61
2022/03/12 12:12:50;;;;;;;4.40;3.07;;;18.40;26.20;20.90;93923.00;;;;10295143;28;48208;-61
2022/03/12 12:17:51;;;;;;;6.13;3.13;;;18.40;26.30;20.90;93932.00;;;;10305448;28;48119;-62
2022/03/12 12:22:52;;;;;;;3.67;2.53;;;18.40;26.30;20.90;93927.00;;;;10262731;28;47277;-62
2022/03/12 12:27:55;;;;;;;5.53;2.75;;;18.40;26.40;20.90;93923.00;;;;10300545;28;46258;-61
2022/03/12 12:32:57;;;;;;;4.82;2.80;;;18.40;26.50;20.90;93905.00;;;;10301187;28;46580;-61
2022/03/12 12:38:01;;;;;;;3.83;2.58;;;18.40;26.60;20.90;93898.00;;;;10311025;28;45474;-62
2022/03/12 12:43:09;;;;;;;4.35;2.65;;;18.40;26.60;20.90;93891.00;;;;10309821;28;45612;-61
2022/03/12 12:48:14;;;;;;;4.65;2.70;;;18.40;26.70;20.90;93881.00;;;;10309488;28;46581;-61
2022/03/12 12:53:31;;;;;;;3.92;2.67;;;18.40;26.80;20.90;93877.00;;;;10309573;28;46355;-61
2022/03/12 12:59:08;;;;;;;3.75;2.42;;;18.40;26.80;20.90;93886.00;;;;10311449;28;45498;-62
2022/03/12 13:04:11;;;;;;;3.58;2.55;;;18.40;26.90;20.90;93877.00;;;;10313267;28;45445;-61
2022/03/12 13:09:33;;;;;;;4.97;2.28;;;18.40;26.80;20.90;93864.00;;;;10290455;28;46138;-61
2022/03/12 13:14:50;;;;;;;3.90;2.42;;;18.40;26.70;20.90;93852.00;;;;10311340;28;45277;-61
2022/03/12 13:19:50;;;;;;;;;;;18.50;26.70;20.90;93843.00;;;;10311608;28;45891;-63
2022/03/12 13:25:03;;;;;;;6.38;3.30;;;18.40;26.70;20.90;93850.00;;;;10326734;28;48438;-62
2022/03/12 13:30:15;;;;;;;9.18;4.40;;;18.40;26.40;20.80;93859.00;;;;10316426;28;46343;-61
2022/03/12 13:35:22;;;;;;;8.55;4.60;;;18.30;26.10;20.80;93849.00;;;;10314447;28;45420;-62
2022/03/12 13:40:25;;;;;;;7.18;4.07;;;18.30;26.20;20.90;93835.00;;;;10311835;28;47060;-62
2022/03/12 13:45:29;;;;;;;6.85;3.45;;;18.40;26.20;21.00;93836.00;;;;10315260;28;45448;-62
2022/03/12 13:50:31;;;;;;;10.20;3.10;;;18.40;26.30;21.00;93827.00;;;;10299425;28;47923;-60
2022/03/12 13:55:31;;;;;;;4.80;2.78;;;18.50;26.30;21.00;93821.00;;;;10315152;28;45236;-60
2022/03/12 14:00:36;;;;;;;6.47;3.00;;;18.50;26.30;21.00;93828.00;;;;10316824;28;46030;-60
2022/03/12 14:05:39;;;;;;;6.53;2.90;;;18.50;26.30;21.00;93829.00;;;;10315247;28;45899;-60
2022/03/12 14:10:45;;;;;;;4.82;2.40;;;18.50;26.40;21.00;93825.00;;;;10315027;28;46147;-60
2022/03/12 14:15:49;;;;;;;4.10;2.30;;;18.50;26.40;21.00;93822.00;;;;10313849;28;48033;-60
2022/03/12 14:20:50;;;;;;;5.63;2.42;;;18.50;26.40;21.00;93812.00;;;;10314865;28;45282;-60
2022/03/12 14:25:52;;;;;;;4.25;2.80;;;18.50;26.40;21.00;93807.00;;;;10298231;28;48146;-61
2022/03/12 14:30:54;;;;;;;5.32;2.58;;;18.50;26.40;21.00;93816.00;;;;10313711;28;47886;-62
2022/03/12 14:35:55;;;;;;;4.55;2.75;;;18.50;26.40;21.00;93806.00;;;;10314822;28;45177;-61
2022/03/12 14:40:56;;;;;;;5.75;3.00;;;18.50;26.50;21.00;93794.00;;;;10315734;28;45231;-60
2022/03/12 14:46:00;;;;;;;4.45;2.20;;;18.50;26.50;21.00;93807.00;;;;10313236;28;45353;-62
2022/03/12 14:51:00;;;;;;;4.03;2.65;;;18.50;26.50;21.00;93790.00;;;;10313909;28;45316;-60
2022/03/12 14:56:02;;;;;;;3.85;2.25;;;18.50;26.50;21.10;93800.00;;;;10314017;28;45375;-61
2022/03/12 15:01:03;;;;;;;5.57;2.50;;;18.50;26.40;21.10;93795.00;;;;10314656;28;45898;-61
2022/03/12 15:06:17;;;;;;;4.53;2.70;;;18.60;26.50;21.10;93802.00;;;;10312896;28;46000;-60
2022/03/12 15:11:20;;;;;;;4.30;2.60;;;18.60;26.40;21.10;93796.00;;;;10304838;28;46477;-60
2022/03/12 15:16:25;;;;;;;3.20;2.20;;;18.60;26.40;21.10;93788.00;;;;10313779;28;46505;-61
2022/03/12 15:21:26;;;;;;;3.25;2.25;;;18.60;26.40;21.10;93797.00;;;;10313790;28;45233;-62
2022/03/12 15:26:27;;;;;;;3.28;2.28;;;18.60;26.40;21.10;93784.00;;;;10302720;28;47044;-61
2022/03/12 15:31:27;;;;;;;3.25;2.15;;;18.60;26.40;21.10;93782.00;;;;10313565;28;45172;-61
2022/03/12 15:36:34;;;;;;;3.53;2.28;;;18.60;26.40;21.10;93792.00;;;;10323460;28;45193;-61
2022/03/12 15:41:35;;;;;;;3.85;2.40;;;18.60;26.50;21.10;93785.00;;;;10313206;28;45342;-61
2022/03/12 15:46:36;;;;;;;3.13;2.28;;;18.60;26.50;21.10;93786.00;;;;10312861;28;45209;-61
2022/03/12 15:51:38;;;;;;;4.00;2.25;;;18.60;26.50;21.10;93773.00;;;;10311325;28;47477;-60
2022/03/12 15:56:39;;;;;;;3.47;2.22;;;18.60;26.50;21.10;93787.00;;;;10313307;28;45221;-60
2022/03/12 16:01:40;;;;;;;3.30;2.33;;;18.60;26.50;21.10;93781.00;;;;10311239;28;45481;-61
2022/03/12 16:06:43;;;;;;;4.22;2.30;;;18.60;26.50;21.20;93784.00;;;;10311291;28;47233;-61
2022/03/12 16:11:47;;;;;;;5.20;2.35;;;18.70;26.50;21.20;93785.00;;;;10310784;28;47158;-60
2022/03/12 16:16:48;;;;;;;2.97;2.00;;;18.70;26.50;21.20;93786.00;;;;10312792;28;45170;-60
2022/03/12 16:21:52;;;;;;;4.10;1.80;;;18.70;26.40;21.30;93785.00;;;;10282179;28;45285;-61
2022/03/12 16:26:53;;;;;;;3.40;1.85;;;18.80;26.40;21.30;93779.00;;;;10314270;28;45430;-60
2022/03/12 16:31:54;;;;;;;2.67;1.80;;;18.80;26.40;21.30;93760.00;;;;10297331;28;45566;-62
2022/03/12 16:36:55;;;;;;;2.67;1.60;;;18.80;26.40;21.30;93761.00;;;;10341769;28;45439;-62
2022/03/12 16:41:57;;;;;;;2.15;1.50;;;18.80;26.40;21.30;93755.00;;;;10321073;28;47852;-59
2022/03/12 16:47:00;;;;;;;1.88;1.48;;;18.80;26.40;21.30;93760.00;;;;10311603;28;45967;-59
2022/03/12 16:52:03;;;;;;;3.03;1.58;;;18.80;26.40;21.30;93755.00;;;;10320359;28;47047;-61
2022/03/12 16:57:04;;;;;;;2.42;1.60;;;18.80;26.50;21.30;93777.00;;;;10327132;28;47443;-61
2022/03/12 17:02:09;;;;;;;2.97;1.50;;;18.80;26.50;21.20;93770.00;;;;10316268;28;45393;-62
2022/03/12 17:07:10;;;;;;;1.95;1.40;;;18.80;26.50;21.20;93769.00;;;;10281500;28;45525;-60
2022/03/12 17:12:11;;;;;;;3.17;1.42;;;18.70;26.50;21.20;93763.00;;;;10310663;28;45404;-60
2022/03/12 17:17:14;;;;;;;2.92;1.42;;;18.70;26.50;21.20;93766.00;;;;10312500;28;45328;-61
2022/03/12 17:22:19;;;;;;;2.25;1.45;;;18.70;26.60;21.20;93760.00;;;;10309799;28;45931;-62
2022/03/12 17:27:20;;;;;;;3.67;1.40;;;18.70;26.60;21.20;93767.00;;;;10310077;28;45493;-62
2022/03/12 17:32:22;;;;;;;1.73;1.30;;;18.70;26.60;21.20;93759.00;;;;10310495;28;46304;-59
2022/03/12 17:37:22;;;;;;;1.67;1.25;;;18.70;26.60;21.20;93768.00;;;;10307638;28;46000;-59
2022/03/12 17:42:23;;;;;;;3.92;1.67;;;18.70;26.60;21.20;93773.00;;;;10309354;28;47410;-60
2022/03/12 17:47:25;;;;;;;3.17;1.50;;;18.70;26.60;21.20;93766.00;;;;10308824;28;45407;-60
2022/03/12 17:52:26;;;;;;;2.10;1.40;;;18.70;26.60;21.20;93754.00;;;;10307968;28;46335;-61
2022/03/12 17:57:27;;;;;;;1.92;1.20;;;18.70;26.60;21.20;93766.00;;;;10306012;28;46304;-63
2022/03/12 18:02:28;;;;;;;1.83;1.30;;;18.70;26.60;21.20;93764.00;;;;10301794;28;47205;-61
2022/03/12 18:07:29;;;;;;;1.63;1.20;;;18.70;26.60;21.20;93765.00;;;;10302192;28;45332;-62
2022/03/12 18:12:30;;;;;;;1.35;1.25;;;18.70;26.60;21.20;93764.00;;;;10313048;28;45433;-60
2022/03/12 18:17:35;;;;;;;1.80;1.30;;;18.70;26.60;21.20;93743.00;;;;10313484;28;46078;-62
2022/03/12 18:22:41;;;;;;;2.17;1.15;;;18.70;26.70;21.20;93755.00;;;;10301509;28;45360;-59
2022/03/12 18:27:43;;;;;;;2.05;1.40;;;18.60;26.70;21.20;93748.00;;;;10305157;28;46937;-62
2022/03/12 18:32:44;;;;;;;2.67;1.50;;;18.60;26.70;21.20;93744.00;;;;10313772;28;47258;-63
2022/03/12 18:37:47;;;;;;;1.35;1.10;;;18.70;26.70;21.20;93744.00;;;;10312904;28;45686;-60
2022/03/12 18:42:51;;;;;;;2.35;1.30;;;18.60;26.70;21.20;93749.00;;;;10295196;28;46714;-61
2022/03/12 18:47:56;;;;;;;2.35;1.35;;;18.60;26.70;21.20;93733.00;;;;10274948;28;47219;-61
2022/03/12 18:53:03;;;;;;;1.90;1.30;;;18.60;26.70;21.20;93726.00;;;;10311972;28;45350;-62
2022/03/12 18:58:04;;;;;;;1.92;1.30;;;18.70;26.80;21.20;93738.00;;;;10312471;28;45281;-62
2022/03/12 19:03:10;;;;;;;1.70;1.25;;;18.70;26.80;21.20;93748.00;;;;10295441;28;47213;-62
2022/03/12 19:08:13;;;;;;;1.73;1.30;;;18.60;26.80;21.20;93743.00;;;;10312926;28;45344;-60
2022/03/12 19:13:15;;;;;;;2.33;1.30;;;18.70;26.80;21.20;93741.00;;;;10312018;28;46718;-61
2022/03/12 19:18:16;;;;;;;1.80;1.20;;;18.70;26.80;21.20;93735.00;;;;10313283;28;45267;-60
2022/03/12 19:23:18;;;;;;;2.00;1.38;;;18.60;26.70;21.20;93749.00;;;;10317908;28;48184;-60
2022/03/12 19:28:18;;;;;;;1.90;1.33;;;18.70;26.70;21.20;93747.00;;;;10312625;28;45182;-61
2022/03/12 19:33:22;;;;;;;2.00;1.27;;;18.60;26.70;21.20;93745.00;;;;10313314;28;45267;-60
2022/03/12 19:38:23;;;;;;;2.28;1.45;;;18.70;26.80;21.20;93752.00;;;;10311228;28;45950;-60
2022/03/12 19:43:24;;;;;;;2.22;1.30;;;18.60;26.80;21.20;93749.00;;;;10287923;28;47313;-60
2022/03/12 19:48:25;;;;;;;1.75;1.25;;;18.60;26.80;21.10;93730.00;;;;10277510;28;48373;-61
2022/03/12 19:53:26;;;;;;;1.75;1.20;;;18.60;26.80;21.10;93750.00;;;;10310820;28;46210;-60
2022/03/12 19:58:27;;;;;;;1.70;1.15;;;18.60;26.80;21.10;93741.00;;;;10303965;28;45170;-61
2022/03/12 20:03:28;;;;;;;1.55;1.05;;;18.60;26.80;21.10;93733.00;;;;10311622;28;45411;-59
2022/03/12 20:08:29;;;;;;;1.45;1.15;;;18.60;26.80;21.10;93752.00;;;;10307834;28;45499;-60
2022/03/12 20:13:30;;;;;;;1.58;1.23;;;18.60;26.90;21.10;93749.00;;;;10312829;28;45940;-60
2022/03/12 20:18:30;;;;;;;1.75;1.05;;;18.60;26.80;21.10;93757.00;;;;10311311;28;46225;-58
2022/03/12 20:23:32;;;;;;;2.78;1.20;;;18.60;26.80;21.10;93750.00;;;;10312883;28;46295;-60
2022/03/12 20:28:33;;;;;;;1.75;1.10;;;18.60;26.80;21.10;93731.00;;;;10294877;28;45271;-61
2022/03/12 20:33:34;;;;;;;1.23;1.02;;;18.60;26.80;21.20;93741.00;;;;10319816;28;46251;-58
2022/03/12 20:38:37;;;;;;;1.27;1.05;;;18.60;26.80;21.10;93729.00;;;;10299191;28;45556;-60
2022/03/12 20:43:37;;;;;;;1.73;1.15;;;18.60;26.80;21.10;93733.00;;;;10326848;28;47234;-61
2022/03/12 20:48:39;;;;;;;1.98;1.20;;;18.60;26.80;21.10;93740.00;;;;10305922;28;45670;-60
2022/03/12 20:53:41;;;;;;;1.70;1.20;;;18.60;26.80;21.10;93737.00;;;;10318065;28;46325;-61
2022/03/12 20:58:42;;;;;;;2.00;1.27;;;18.60;26.80;21.10;93747.00;;;;10344019;28;45275;-60
2022/03/12 21:03:43;;;;;;;2.08;1.20;;;18.60;26.80;21.10;93734.00;;;;10343382;28;45368;-60
2022/03/12 21:08:44;;;;;;;1.52;1.00;;;18.60;26.80;21.10;93739.00;;;;10308061;28;48206;-62
2022/03/12 21:13:48;;;;;;;1.95;1.13;;;18.60;26.90;21.10;93734.00;;;;10312221;28;48113;-59
2022/03/12 21:18:49;;;;;;;1.55;1.15;;;18.60;26.80;21.10;93725.00;;;;10326810;28;47045;-62
2022/03/12 21:23:51;;;;;;;1.45;1.15;;;18.60;26.90;21.10;93728.00;;;;10287939;28;48235;-59
2022/03/12 21:28:54;;;;;;;1.35;0.90;;;18.60;26.90;21.10;93731.00;;;;10307896;28;45950;-60
2022/03/12 21:33:54;;;;;;;1.60;1.10;;;18.50;26.90;21.10;93718.00;;;;10309805;28;45351;-61
2022/03/12 21:38:55;;;;;;;1.75;1.23;;;18.60;26.90;21.10;93717.00;;;;10308861;28;47746;-61
2022/03/12 21:43:56;;;;;;;1.45;1.20;;;18.50;26.90;21.10;93725.00;;;;10310210;28;46438;-58
2022/03/12 21:48:57;;;;;;;1.15;1.00;;;18.50;26.90;21.10;93729.00;;;;10316678;28;45157;-61
2022/03/12 21:54:01;;;;;;;2.20;1.20;;;18.50;26.90;21.00;93714.00;;;;10316769;28;45361;-61
2022/03/12 21:59:02;;;;;;;1.58;1.17;;;18.50;26.90;21.00;93719.00;;;;10317474;28;45138;-60
2022/03/12 22:04:03;;;;;;;1.25;0.90;;;18.50;26.90;21.00;93709.00;;;;10316866;28;46816;-59
2022/03/12 22:09:04;;;;;;;1.40;1.10;;;18.40;26.90;21.00;93714.00;;;;10316037;28;45329;-61
2022/03/12 22:14:04;;;;;;;1.35;1.00;;;18.40;26.90;21.00;93719.00;;;;10316184;28;46222;-60